Time;durP1;ratioP1;P1;durP2;ratioP2;P2;SDS_P1;SDS_P2;PMS_P1;PMS_P2;Temp;Humidity;BMP_temperature;BMP_pressure;BME280_temperature;BME280_humidity;BME280_pressure;Samples;Min_cycle;Max_cycle;Signal;HPM_P1;HPM_P2
2023/02/28 00:00:09;;;;;;;7.50;3.90;;;;;;;-2.76;70.81;99999.73;105262;1260;61751;-26
2023/02/28 00:02:41;;;;;;;6.50;3.80;;;;;;;-3.02;71.38;100005.62;105216;1256;75440;-25
2023/02/28 00:05:10;;;;;;;6.30;4.60;;;;;;;-3.17;72.06;100005.94;105288;1263;76132;-25
2023/02/28 00:07:43;;;;;;;6.80;5.10;;;;;;;-3.22;72.60;100008.20;105154;1256;74143;-26
2023/02/28 00:10:20;;;;;;;8.90;4.40;;;;;;;-3.31;73.22;100007.94;105160;1257;61131;-25
2023/02/28 00:12:50;;;;;;;7.40;4.30;;;;;;;-3.51;74.07;100010.15;105279;1256;61989;-25
2023/02/28 00:15:19;;;;;;;5.10;3.20;;;;;;;-3.50;73.99;100010.14;105256;1260;75316;-25
2023/02/28 00:17:48;;;;;;;5.20;3.10;;;;;;;-3.04;72.61;100012.11;105252;1260;75161;-25
2023/02/28 00:20:16;;;;;;;7.60;5.00;;;;;;;-2.87;71.44;100013.12;105248;1256;74455;-25
2023/02/28 00:22:47;;;;;;;7.50;4.60;;;;;;;-2.84;71.10;100015.13;105181;1257;61451;-25
2023/02/28 00:25:17;;;;;;;5.00;3.50;;;;;;;-2.97;71.88;100015.77;105387;1262;61121;-25
2023/02/28 00:27:46;;;;;;;10.50;4.50;;;;;;;-3.21;72.79;100017.52;105097;1263;75434;-25
2023/02/28 00:30:19;;;;;;;7.30;4.40;;;;;;;-3.51;73.44;100016.94;105333;1260;75248;-25
2023/02/28 00:32:50;;;;;;;8.00;3.80;;;;;;;-3.66;74.27;100018.25;105204;1257;74173;-25
2023/02/28 00:35:18;;;;;;;6.30;4.70;;;;;;;-3.79;74.60;100019.52;105166;1257;61171;-25
2023/02/28 00:37:47;;;;;;;5.60;2.80;;;;;;;-3.70;74.95;100017.95;105132;1262;62122;-25
2023/02/28 00:40:16;;;;;;;5.80;3.20;;;;;;;-3.18;73.15;100017.16;105232;1257;74342;-25
2023/02/28 00:42:45;;;;;;;7.40;4.30;;;;;;;-2.90;71.88;100024.87;105225;1262;76094;-25
2023/02/28 00:45:13;;;;;;;9.10;4.70;;;;;;;-2.97;71.52;100017.98;105221;1256;74245;-26
2023/02/28 00:47:41;;;;;;;10.10;4.60;;;;;;;-3.08;71.84;100020.64;105143;1261;61244;-25
2023/02/28 00:50:10;;;;;;;8.20;4.60;;;;;;;-3.34;72.97;100020.89;105461;1257;61872;-25
2023/02/28 00:52:39;;;;;;;9.40;4.20;;;;;;;-3.51;73.23;100017.63;105160;1257;75689;-25
2023/02/28 00:55:08;;;;;;;4.80;3.30;;;;;;;-3.64;73.77;100017.73;105408;1256;76254;-25
2023/02/28 00:57:36;;;;;;;4.40;3.10;;;;;;;-3.81;74.61;100018.69;105161;1257;74186;-26
2023/02/28 01:00:06;;;;;;;5.70;3.10;;;;;;;-3.95;74.83;100015.40;105400;1262;61849;-25
2023/02/28 01:02:35;;;;;;;5.50;3.40;;;;;;;-4.04;75.34;100012.23;105168;1262;62854;-25
2023/02/28 01:05:06;;;;;;;5.30;3.00;;;;;;;-3.57;74.16;100016.47;105288;1256;76441;-25
2023/02/28 01:07:34;;;;;;;7.60;3.80;;;;;;;-3.03;71.65;100012.95;105091;1256;75851;-26
2023/02/28 01:10:03;;;;;;;7.60;3.30;;;;;;;-2.93;70.49;100014.04;105398;1256;74347;-26
2023/02/28 01:12:32;;;;;;;10.30;4.40;;;;;;;-3.01;70.64;100018.52;105120;1263;61212;-25
2023/02/28 01:15:02;;;;;;;10.20;4.80;;;;;;;-3.20;70.90;100011.25;105354;1256;62122;-26
2023/02/28 01:17:31;;;;;;;13.50;5.70;;;;;;;-3.46;72.03;100013.15;105274;1261;74686;-25
2023/02/28 01:20:02;;;;;;;8.90;4.90;;;;;;;-3.71;72.95;100011.16;105399;1257;75785;-25
2023/02/28 01:22:31;;;;;;;7.20;3.90;;;;;;;-3.94;74.04;100008.42;105485;1256;73515;-25
2023/02/28 01:25:00;;;;;;;13.40;6.20;;;;;;;-4.16;74.91;100004.83;105472;1256;62049;-25
2023/02/28 01:27:29;;;;;;;8.40;5.00;;;;;;;-4.36;75.36;100005.45;105230;1262;61586;-25
2023/02/28 01:30:02;;;;;;;3.10;2.40;;;;;;;-4.38;75.85;100011.05;105227;1256;75319;-25
2023/02/28 01:32:31;;;;;;;5.70;3.60;;;;;;;-3.71;74.83;100012.52;105122;1256;74527;-25
2023/02/28 01:34:59;;;;;;;5.90;3.60;;;;;;;-3.25;72.86;100011.96;105262;1262;74283;-25
2023/02/28 01:37:29;;;;;;;7.00;2.90;;;;;;;-3.24;72.22;100016.54;105458;1256;61194;-26
2023/02/28 01:39:58;;;;;;;5.90;3.40;;;;;;;-3.44;72.26;100022.15;105149;1262;61746;-25
2023/02/28 01:42:26;;;;;;;6.00;3.00;;;;;;;-3.72;72.90;100022.20;105241;1257;75917;-25
2023/02/28 01:45:18;;;;;;;4.90;2.80;;;;;;;-3.97;73.83;100018.98;105238;1257;76000;-25
2023/02/28 01:47:48;;;;;;;4.30;2.60;;;;;;;-4.26;74.32;100016.59;105231;1260;73494;-26
2023/02/28 01:50:19;;;;;;;5.40;2.80;;;;;;;-4.46;75.31;100020.75;105226;1257;62622;-25
2023/02/28 01:52:47;;;;;;;4.90;2.90;;;;;;;-4.64;75.62;100019.30;105145;1256;61215;-25
2023/02/28 01:55:17;;;;;;;4.20;2.40;;;;;;;-4.82;75.81;100027.31;105259;1256;75664;-25
2023/02/28 01:57:49;;;;;;;3.30;2.50;;;;;;;-4.98;76.19;100028.54;105136;1263;74100;-25
2023/02/28 02:00:20;;;;;;;4.00;2.80;;;;;;;-5.10;76.61;100037.02;105115;1263;73463;-25
2023/02/28 02:02:52;;;;;;;6.90;2.40;;;;;;;-5.23;76.61;100037.38;105072;1262;61713;-26
2023/02/28 02:05:23;;;;;;;4.40;2.00;;;;;;;-5.33;77.33;100041.29;105360;1262;61850;-25
2023/02/28 02:07:56;;;;;;;8.90;2.90;;;;;;;-4.76;76.87;100039.98;105007;1265;75041;-25
2023/02/28 02:10:29;;;;;;;8.90;2.80;;;;;;;-3.84;75.10;100042.47;105126;1257;76121;-25
2023/02/28 02:13:20;;;;;;;4.40;2.40;;;;;;;-3.60;72.93;100050.48;105097;1257;74220;-26
2023/02/28 02:15:58;;;;;;;4.30;2.50;;;;;;;-3.73;72.50;100054.79;105244;1262;61149;-25
2023/02/28 02:18:31;;;;;;;4.70;2.50;;;;;;;-3.98;72.77;100055.96;105433;1261;61257;-25
2023/02/28 02:21:17;;;;;;;4.50;1.80;;;;;;;-4.22;73.18;100059.30;105114;1256;75547;-25
2023/02/28 02:23:48;;;;;;;4.50;2.70;;;;;;;-4.46;73.72;100061.61;105473;1256;76089;-25
2023/02/28 02:26:35;;;;;;;5.10;2.60;;;;;;;-4.66;74.19;100067.25;105503;1262;74486;-25
2023/02/28 02:29:49;;;;;;;4.90;2.70;;;;;;;-4.85;75.36;100068.31;105516;1256;61128;-25
2023/02/28 02:32:43;;;;;;;5.20;2.80;;;;;;;-5.04;76.02;100071.91;105441;1262;62083;-25
2023/02/28 02:35:28;;;;;;;5.30;3.00;;;;;;;-5.19;77.00;100079.36;105675;1256;74238;-25
2023/02/28 02:38:06;;;;;;;3.50;2.20;;;;;;;-5.32;77.79;100081.91;105470;1256;75909;-25
2023/02/28 02:40:47;;;;;;;7.00;2.50;;;;;;;-5.38;79.03;100079.88;105230;1256;73366;-25
2023/02/28 02:43:19;;;;;;;4.30;3.00;;;;;;;-4.71;78.64;100079.80;105267;1256;61710;-26
2023/02/28 02:45:54;;;;;;;3.20;1.90;;;;;;;-3.90;76.15;100076.11;105535;1258;61875;-25
2023/02/28 02:48:25;;;;;;;3.90;2.20;;;;;;;-3.77;74.70;100073.83;105252;1258;75340;-25
2023/02/28 02:51:01;;;;;;;5.70;3.10;;;;;;;-3.94;74.70;100076.28;105135;1258;76002;-25
2023/02/28 02:53:49;;;;;;;3.60;3.10;;;;;;;-4.13;75.23;100077.59;105131;1256;73405;-25
2023/02/28 02:56:19;;;;;;;3.70;2.60;;;;;;;-4.36;75.88;100085.13;105300;1257;61086;-26
2023/02/28 02:58:47;;;;;;;5.00;2.80;;;;;;;-4.55;76.39;100086.21;105139;1264;61497;-25
2023/02/28 03:01:27;;;;;;;5.00;2.90;;;;;;;-4.71;77.25;100087.27;105128;1262;75338;-25
2023/02/28 03:04:02;;;;;;;3.50;2.40;;;;;;;-4.84;77.21;100094.74;105169;1257;75737;-25
2023/02/28 03:06:30;;;;;;;3.40;2.40;;;;;;;-4.98;77.20;100098.49;105114;1256;74295;-25
2023/02/28 03:09:00;;;;;;;3.30;2.10;;;;;;;-5.13;77.87;100099.35;105241;1256;62003;-25
2023/02/28 03:11:29;;;;;;;3.70;2.40;;;;;;;-5.30;78.60;100098.67;105244;1260;60986;-25
2023/02/28 03:14:27;;;;;;;4.40;3.00;;;;;;;-5.40;79.42;100095.95;105172;1257;75085;-25
2023/02/28 03:17:17;;;;;;;4.70;2.60;;;;;;;-4.67;79.89;100104.02;105344;1256;75855;-25
2023/02/28 03:20:17;;;;;;;4.70;2.60;;;;;;;-3.85;77.63;100100.17;105304;1257;74615;-26
2023/02/28 03:22:53;;;;;;;7.20;3.20;;;;;;;-3.95;76.02;100097.67;105577;1262;61175;-25
2023/02/28 03:25:43;;;;;;;4.70;3.20;;;;;;;-4.27;76.70;100096.64;105623;1262;61191;-25
2023/02/28 03:28:35;;;;;;;8.30;4.00;;;;;;;-4.58;77.40;100094.36;105624;1265;75285;-26
2023/02/28 03:31:08;;;;;;;6.30;4.10;;;;;;;-4.86;78.35;100097.13;105378;1263;75708;-25
2023/02/28 03:33:54;;;;;;;8.30;5.00;;;;;;;-5.11;79.69;100102.73;105522;1262;74460;-25
2023/02/28 03:36:28;;;;;;;7.90;4.20;;;;;;;-5.30;80.43;100097.82;105192;1263;61751;-26
2023/02/28 03:39:05;;;;;;;7.90;4.10;;;;;;;-5.46;81.49;100095.94;105334;1262;61665;-25
2023/02/28 03:41:38;;;;;;;6.10;2.20;;;;;;;-5.52;81.99;100098.83;105309;1262;74520;-25
2023/02/28 03:44:46;;;;;;;6.00;2.40;;;;;;;-4.93;80.73;100102.37;105208;1265;75895;-26
2023/02/28 03:47:17;;;;;;;5.30;2.90;;;;;;;-4.37;78.32;100098.70;105278;1263;73177;-26
2023/02/28 03:49:59;;;;;;;7.20;3.10;;;;;;;-4.31;77.28;100098.17;105096;1263;61103;-25
2023/02/28 03:52:29;;;;;;;6.10;3.50;;;;;;;-4.60;77.80;100098.09;105186;1265;62133;-25
2023/02/28 03:55:02;;;;;;;6.90;4.20;;;;;;;-4.79;78.44;100102.02;105443;1263;75586;-25
2023/02/28 03:57:56;;;;;;;7.90;5.40;;;;;;;-5.01;79.41;100104.42;105207;1258;75874;-25
2023/02/28 04:00:28;;;;;;;;;;;;;;;-5.19;80.35;100105.45;105274;1261;74230;-25
2023/02/28 04:02:56;;;;;;;7.20;4.10;;;;;;;-5.37;80.62;100108.49;105235;1258;61919;-27
2023/02/28 04:05:25;;;;;;;6.40;3.90;;;;;;;-5.53;81.48;100102.20;105103;1263;62005;-25
2023/02/28 04:07:54;;;;;;;5.00;3.30;;;;;;;-5.66;82.03;100106.24;105200;1261;75675;-25
2023/02/28 04:10:22;;;;;;;9.50;4.00;;;;;;;-5.25;81.68;100107.80;105330;1255;75467;-25
2023/02/28 04:12:53;;;;;;;5.10;3.60;;;;;;;-4.46;79.70;100108.05;105340;1264;74429;-25
2023/02/28 04:15:24;;;;;;;6.80;3.80;;;;;;;-4.32;77.47;100111.57;105519;1256;61071;-25
2023/02/28 04:17:53;;;;;;;5.70;3.30;;;;;;;-4.51;77.40;100113.48;105471;1260;61820;-26
2023/02/28 04:20:23;;;;;;;4.30;2.40;;;;;;;-4.77;77.74;100114.73;105202;1262;75385;-25
2023/02/28 04:22:51;;;;;;;7.00;3.80;;;;;;;-5.07;78.91;100119.00;103867;1260;2002006;-25
2023/02/28 04:25:19;;;;;;;5.10;3.20;;;;;;;-5.33;80.32;100114.25;105212;1260;74226;-25
2023/02/28 04:27:54;;;;;;;5.40;3.20;;;;;;;-5.51;81.02;100110.50;105601;1261;61965;-25
2023/02/28 04:30:22;;;;;;;5.50;3.10;;;;;;;-5.69;81.77;100116.73;105464;1261;61801;-25
2023/02/28 04:32:51;;;;;;;5.20;3.20;;;;;;;-5.80;82.30;100116.88;105350;1262;75328;-25
2023/02/28 04:35:19;;;;;;;4.50;2.60;;;;;;;-5.87;82.57;100122.27;105384;1261;75923;-25
2023/02/28 04:37:47;;;;;;;4.20;2.20;;;;;;;-5.36;81.74;100124.73;105199;1261;74472;-25
2023/02/28 04:40:19;;;;;;;4.10;2.70;;;;;;;-4.65;79.11;100126.75;105169;1261;61122;-25
2023/02/28 04:42:47;;;;;;;4.60;2.50;;;;;;;-4.52;77.81;100124.70;105194;1262;62292;-26
2023/02/28 04:45:17;;;;;;;4.90;2.70;;;;;;;-4.73;77.72;100127.42;105189;1261;75348;-25
2023/02/28 04:47:45;;;;;;;5.10;2.90;;;;;;;-4.94;78.50;100125.25;105240;1264;74908;-25
2023/02/28 04:50:14;;;;;;;5.30;2.70;;;;;;;-5.24;79.48;100119.16;105220;1260;74306;-25
2023/02/28 04:52:43;;;;;;;4.30;2.50;;;;;;;-5.46;80.51;100117.29;105371;1261;61410;-25
2023/02/28 04:55:11;;;;;;;7.50;3.30;;;;;;;-5.62;81.17;100119.30;105614;1261;61097;-26
2023/02/28 04:57:42;;;;;;;6.80;4.00;;;;;;;-5.81;82.29;100116.70;105485;1258;75510;-25
2023/02/28 05:00:12;;;;;;;6.10;3.10;;;;;;;-5.89;83.02;100117.70;105473;1264;75884;-25
2023/02/28 05:02:43;;;;;;;12.90;5.70;;;;;;;-5.37;81.71;100118.97;105095;1261;72941;-25
2023/02/28 05:05:17;;;;;;;15.80;5.40;;;;;;;-4.92;79.91;100121.54;105190;1258;61270;-25
2023/02/28 05:07:47;;;;;;;10.00;4.30;;;;;;;-4.93;79.10;100122.72;105224;1256;62537;-26
2023/02/28 05:10:16;;;;;;;9.60;5.90;;;;;;;-5.00;79.10;100126.79;105253;1257;74449;-25
2023/02/28 05:12:45;;;;;;;10.80;5.60;;;;;;;-5.29;79.85;100133.39;105476;1258;75966;-26
2023/02/28 05:15:14;;;;;;;9.80;5.40;;;;;;;-5.34;80.35;100136.77;105533;1258;74728;-24
2023/02/28 05:17:43;;;;;;;13.10;6.10;;;;;;;-5.47;80.70;100136.07;105146;1261;61168;-24
2023/02/28 05:20:13;;;;;;;18.30;7.70;;;;;;;-5.68;81.46;100131.79;105447;1263;61595;-27
2023/02/28 05:22:43;;;;;;;25.40;11.50;;;;;;;-5.80;82.30;100137.36;105559;1259;75691;-24
2023/02/28 05:25:17;;;;;;;20.70;9.20;;;;;;;-5.95;83.50;100134.59;105578;1260;76167;-24
2023/02/28 05:27:46;;;;;;;21.90;11.40;;;;;;;-5.37;82.81;100135.39;105125;1256;73230;-24
2023/02/28 05:30:16;;;;;;;14.40;7.10;;;;;;;-4.81;80.46;100138.28;105474;1262;61106;-26
2023/02/28 05:32:49;;;;;;;13.90;7.50;;;;;;;-4.67;79.40;100136.41;105535;1260;61850;-25
2023/02/28 05:35:18;;;;;;;12.90;7.50;;;;;;;-4.71;79.59;100140.83;105487;1260;75776;-25
2023/02/28 05:37:46;;;;;;;12.50;7.50;;;;;;;-4.86;79.48;100139.81;105168;1269;76385;-24
2023/02/28 05:40:15;;;;;;;14.80;7.80;;;;;;;-5.02;79.68;100140.84;105368;1259;74486;-24
2023/02/28 05:42:44;;;;;;;14.00;7.30;;;;;;;-5.22;80.21;100146.25;105277;1260;61192;-24
2023/02/28 05:45:12;;;;;;;4.60;3.30;;;;;;;-5.33;80.80;100146.60;105607;1268;61819;-24
2023/02/28 05:47:42;;;;;;;10.70;6.60;;;;;;;-5.11;79.63;100154.88;105654;1260;74389;-24
2023/02/28 05:50:11;;;;;;;14.60;8.20;;;;;;;-4.51;76.94;100157.58;105682;1260;75969;-24
2023/02/28 05:52:40;;;;;;;16.90;10.10;;;;;;;-4.43;75.81;100163.83;105580;1258;73223;-24
2023/02/28 05:55:09;;;;;;;13.30;7.00;;;;;;;-4.61;75.91;100167.23;105609;1268;61375;-24
2023/02/28 05:57:38;;;;;;;12.40;6.60;;;;;;;-4.72;76.16;100168.45;105578;1257;61504;-25
2023/02/28 06:00:09;;;;;;;19.00;11.10;;;;;;;-4.94;76.66;100167.95;105260;1257;75720;-24
2023/02/28 06:02:40;;;;;;;10.00;5.80;;;;;;;-5.08;77.71;100166.92;105193;1257;76186;-24
2023/02/28 06:05:16;;;;;;;12.20;7.70;;;;;;;-5.26;77.10;100165.20;105230;1257;74422;-25
2023/02/28 06:07:45;;;;;;;12.30;6.10;;;;;;;-5.29;77.76;100168.92;105209;1257;61156;-25
2023/02/28 06:10:15;;;;;;;29.90;15.50;;;;;;;-4.96;77.56;100171.15;105530;1261;61813;-25
2023/02/28 06:12:44;;;;;;;44.90;21.30;;;;;;;-4.39;75.18;100174.49;105407;1261;75716;-25
2023/02/28 06:15:13;;;;;;;12.70;6.70;;;;;;;-4.40;72.91;100175.00;105540;1262;76040;-25
2023/02/28 06:17:42;;;;;;;8.80;5.20;;;;;;;-4.31;73.16;100176.52;105172;1264;74189;-25
2023/02/28 06:20:12;;;;;;;23.10;13.80;;;;;;;-4.30;73.69;100174.30;105159;1262;61160;-26
2023/02/28 06:22:41;;;;;;;16.70;9.70;;;;;;;-4.39;73.29;100178.05;105265;1257;61169;-26
2023/02/28 06:25:09;;;;;;;51.60;39.90;;;;;;;-4.56;72.82;100175.36;105407;1257;75469;-26
2023/02/28 06:27:38;;;;;;;13.20;8.00;;;;;;;-4.79;73.14;100176.23;105506;1262;73844;-26
2023/02/28 06:30:07;;;;;;;18.00;12.30;;;;;;;-4.73;72.79;100174.02;105547;1258;74508;-26
2023/02/28 06:32:36;;;;;;;11.30;6.00;;;;;;;-4.81;73.01;100176.08;105499;1258;61139;-26
2023/02/28 06:35:05;;;;;;;11.20;7.30;;;;;;;-4.79;73.59;100175.90;105440;1257;61056;-26
2023/02/28 06:37:34;;;;;;;12.20;5.40;;;;;;;-4.70;73.43;100177.42;105606;1260;75475;-26
2023/02/28 06:40:05;;;;;;;6.10;4.10;;;;;;;-4.64;73.24;100175.89;105582;1257;75978;-26
2023/02/28 06:42:34;;;;;;;5.50;3.60;;;;;;;-4.42;71.64;100175.67;105443;1257;73484;-26
2023/02/28 06:45:08;;;;;;;12.00;6.50;;;;;;;-3.73;68.52;100178.85;105437;1259;61610;-26
2023/02/28 06:47:39;;;;;;;5.60;3.60;;;;;;;-3.49;67.25;100175.17;105318;1259;61726;-26
2023/02/28 06:50:11;;;;;;;16.50;12.30;;;;;;;-3.53;67.61;100175.36;105143;1257;75609;-26
2023/02/28 06:52:40;;;;;;;32.40;20.90;;;;;;;-3.89;67.96;100172.83;105198;1257;75044;-26
2023/02/28 06:55:10;;;;;;;51.00;30.20;;;;;;;-3.87;68.37;100180.61;105257;1260;74522;-26
2023/02/28 06:57:40;;;;;;;21.50;13.00;;;;;;;-3.89;68.90;100183.00;105537;1255;61504;-26
2023/02/28 07:00:10;;;;;;;6.70;3.50;;;;;;;-3.79;69.01;100182.62;105238;1260;61717;-26
2023/02/28 07:02:40;;;;;;;5.00;2.70;;;;;;;-3.89;68.52;100186.05;105378;1257;74419;-26
2023/02/28 07:05:08;;;;;;;10.20;4.30;;;;;;;-4.05;67.83;100186.11;105358;1258;75896;-26
2023/02/28 07:07:40;;;;;;;3.00;1.70;;;;;;;-3.91;68.28;100189.45;105501;1257;72194;-27
2023/02/28 07:10:12;;;;;;;6.70;2.70;;;;;;;-3.76;68.47;100194.82;105512;1258;61178;-25
2023/02/28 07:12:43;;;;;;;10.30;5.20;;;;;;;-3.79;68.00;100194.84;105600;1260;62000;-26
2023/02/28 07:15:11;;;;;;;3.80;2.60;;;;;;;-3.58;68.39;100192.37;105424;1259;75580;-26
2023/02/28 07:17:40;;;;;;;5.40;2.80;;;;;;;-3.53;67.32;100186.40;105426;1257;75633;-26
2023/02/28 07:20:11;;;;;;;5.30;3.40;;;;;;;-3.52;66.63;100187.74;105541;1260;74527;-26
2023/02/28 07:22:39;;;;;;;15.70;8.80;;;;;;;-3.47;66.83;100186.02;105310;1256;61249;-25
2023/02/28 07:25:09;;;;;;;32.60;14.50;;;;;;;-3.55;66.28;100182.52;105351;1260;61985;-25
2023/02/28 07:27:37;;;;;;;8.70;5.60;;;;;;;-3.35;67.00;100192.06;105357;1272;74650;-25
2023/02/28 07:30:07;;;;;;;9.50;5.90;;;;;;;-3.08;66.23;100192.58;105465;1261;76163;-26
2023/02/28 07:32:37;;;;;;;8.50;6.00;;;;;;;-2.75;65.75;100198.95;105516;1257;73169;-26
2023/02/28 07:35:07;;;;;;;4.30;2.80;;;;;;;-2.73;64.46;100196.39;105660;1260;61036;-26
2023/02/28 07:37:36;;;;;;;5.20;2.60;;;;;;;-2.74;64.06;100200.65;105543;1263;62696;-26
2023/02/28 07:40:08;;;;;;;4.90;3.30;;;;;;;-2.73;64.02;100204.21;105642;1259;75484;-26
2023/02/28 07:42:36;;;;;;;9.20;6.00;;;;;;;-2.71;62.78;100200.44;105520;1262;75364;-26
2023/02/28 07:45:06;;;;;;;4.50;3.00;;;;;;;-2.68;64.56;100205.36;105493;1257;74203;-26
2023/02/28 07:47:34;;;;;;;6.20;3.50;;;;;;;-2.60;63.26;100203.08;105177;1261;61263;-26
2023/02/28 07:50:03;;;;;;;3.50;2.00;;;;;;;-2.27;61.81;100201.06;105633;1259;61815;-26
2023/02/28 07:52:32;;;;;;;5.00;2.70;;;;;;;-2.16;61.95;100198.40;105379;1256;75601;-26
2023/02/28 07:55:01;;;;;;;3.40;2.70;;;;;;;-2.15;61.92;100196.85;105620;1258;74643;-26
2023/02/28 07:57:29;;;;;;;4.10;3.20;;;;;;;-2.05;61.65;100195.56;105623;1257;73448;-26
2023/02/28 07:59:59;;;;;;;3.50;2.10;;;;;;;-1.97;61.53;100194.10;105408;1257;61713;-26
2023/02/28 08:02:27;;;;;;;3.70;2.70;;;;;;;-2.12;61.85;100198.02;105172;1260;61674;-26
2023/02/28 08:04:56;;;;;;;4.80;3.40;;;;;;;-2.16;61.64;100194.14;105577;1258;75478;-26
2023/02/28 08:07:45;;;;;;;4.20;2.60;;;;;;;-2.09;61.73;100187.95;105549;1257;76110;-26
2023/02/28 08:10:13;;;;;;;5.50;2.70;;;;;;;-1.99;61.05;100193.27;105537;1257;74108;-26
2023/02/28 08:12:42;;;;;;;4.10;2.30;;;;;;;-1.75;61.13;100196.90;105475;1257;61436;-26
2023/02/28 08:15:11;;;;;;;2.80;2.00;;;;;;;-1.50;60.54;100192.34;105267;1257;61847;-26
2023/02/28 08:17:40;;;;;;;2.50;1.90;;;;;;;-1.16;60.31;100191.86;105403;1257;75566;-26
2023/02/28 08:20:10;;;;;;;4.20;2.60;;;;;;;-0.82;58.97;100194.41;105412;1257;76216;-26
2023/02/28 08:22:39;;;;;;;2.70;1.90;;;;;;;-0.67;58.77;100190.93;105473;1258;74200;-26
2023/02/28 08:25:08;;;;;;;2.80;1.70;;;;;;;-0.71;57.70;100191.16;105381;1259;61062;-26
2023/02/28 08:27:37;;;;;;;2.80;2.00;;;;;;;-0.79;57.07;100183.45;105069;1258;62122;-26
2023/02/28 08:30:07;;;;;;;3.70;1.90;;;;;;;-1.01;58.09;100185.33;105689;1257;75604;-26
2023/02/28 08:32:35;;;;;;;4.70;2.40;;;;;;;-1.33;58.25;100187.16;105347;1263;75291;-26
2023/02/28 08:35:05;;;;;;;4.00;2.80;;;;;;;-1.52;58.81;100183.52;105455;1259;74466;-26
2023/02/28 08:37:33;;;;;;;6.40;2.30;;;;;;;-1.47;58.15;100182.92;105180;1264;61164;-26
2023/02/28 08:40:03;;;;;;;2.30;1.80;;;;;;;-1.12;58.43;100173.05;105648;1256;61154;-27
2023/02/28 08:42:32;;;;;;;3.10;2.40;;;;;;;-1.40;58.93;100167.34;105643;1260;75162;-26
2023/02/28 08:45:03;;;;;;;3.10;2.20;;;;;;;-1.12;58.41;100169.98;105651;1257;76041;-26
2023/02/28 08:47:31;;;;;;;2.50;1.50;;;;;;;-1.07;58.31;100175.55;105544;1256;74148;-26
2023/02/28 08:50:00;;;;;;;3.20;2.40;;;;;;;-0.93;58.50;100176.84;105662;1257;61077;-26
2023/02/28 08:52:29;;;;;;;4.50;2.40;;;;;;;-1.20;57.77;100172.66;105560;1260;62193;-25
2023/02/28 08:54:57;;;;;;;3.40;2.30;;;;;;;-1.24;59.17;100176.13;105668;1256;75314;-25
2023/02/28 08:57:26;;;;;;;3.20;2.00;;;;;;;-0.91;58.86;100178.88;105453;1262;76114;-25
2023/02/28 08:59:58;;;;;;;4.10;2.40;;;;;;;-0.55;57.68;100182.55;105430;1256;75200;-25
2023/02/28 09:02:27;;;;;;;4.50;2.10;;;;;;;-0.30;57.07;100180.05;105408;1256;61061;-25
2023/02/28 09:04:56;;;;;;;3.30;2.20;;;;;;;-0.22;56.20;100171.36;105198;1258;61844;-25
2023/02/28 09:07:24;;;;;;;3.80;2.10;;;;;;;-0.15;55.95;100169.70;105257;1256;75364;-26
2023/02/28 09:09:54;;;;;;;2.70;1.50;;;;;;;-0.07;56.48;100166.98;105437;1257;75056;-25
2023/02/28 09:12:23;;;;;;;2.60;1.70;;;;;;;0.02;55.92;100165.61;105296;1261;74366;-25
2023/02/28 09:14:53;;;;;;;2.00;1.80;;;;;;;-0.15;55.71;100163.03;105280;1262;61216;-25
2023/02/28 09:17:22;;;;;;;2.50;1.40;;;;;;;-0.16;55.37;100163.05;105597;1257;61090;-25
2023/02/28 09:19:50;;;;;;;2.90;1.90;;;;;;;-0.01;55.95;100164.81;105629;1257;75373;-26
2023/02/28 09:22:19;;;;;;;4.90;2.40;;;;;;;0.01;56.76;100164.95;105647;1257;75845;-26
2023/02/28 09:24:48;;;;;;;3.90;2.20;;;;;;;-0.31;55.38;100155.48;105646;1257;74427;-25
2023/02/28 09:27:18;;;;;;;3.90;1.40;;;;;;;-0.30;56.14;100159.23;105434;1257;61227;-25
2023/02/28 09:29:47;;;;;;;2.60;1.80;;;;;;;-0.25;56.01;100162.38;105600;1260;62197;-25
2023/02/28 09:32:17;;;;;;;3.40;2.60;;;;;;;-0.13;56.08;100158.40;105663;1256;75151;-25
2023/02/28 09:34:46;;;;;;;3.60;2.60;;;;;;;-0.45;56.68;100156.77;105667;1259;76127;-25
2023/02/28 09:37:14;;;;;;;2.30;2.00;;;;;;;-0.53;56.74;100153.00;105596;1256;74427;-25
2023/02/28 09:39:43;;;;;;;3.60;2.70;;;;;;;-0.63;57.50;100149.58;105440;1258;61408;-26
2023/02/28 09:42:17;;;;;;;3.00;2.30;;;;;;;-0.49;56.73;100149.66;105491;1257;62209;-25
2023/02/28 09:44:46;;;;;;;2.90;2.20;;;;;;;-0.79;57.17;100148.16;105190;1257;75391;-26
2023/02/28 09:47:34;;;;;;;3.20;2.40;;;;;;;-0.66;57.17;100150.83;105124;1263;76127;-25
2023/02/28 09:51:01;;;;;;;3.20;2.40;;;;;;;-0.95;57.45;100147.05;105371;1260;74370;-26
2023/02/28 09:53:35;;;;;;;3.60;1.70;;;;;;;-0.63;58.18;100149.07;105216;1261;61245;-26
2023/02/28 09:56:11;;;;;;;6.10;3.10;;;;;;;-0.30;57.01;100139.43;104864;1266;61160;-25
2023/02/28 09:58:42;;;;;;;3.70;2.40;;;;;;;-0.71;57.78;100142.90;104992;1262;74477;-26
2023/02/28 10:01:44;;;;;;;3.30;2.20;;;;;;;-0.27;59.07;100142.09;105595;1257;75549;-26
2023/02/28 10:04:34;;;;;;;5.90;3.00;;;;;;;-0.26;56.82;100138.31;105528;1255;74246;-26
2023/02/28 10:07:06;;;;;;;5.00;3.00;;;;;;;-0.64;58.18;100133.90;105608;1260;61408;-26
2023/02/28 10:09:34;;;;;;;9.60;2.30;;;;;;;-0.48;57.08;100125.26;105507;1264;62031;-26
2023/02/28 10:12:04;;;;;;;4.10;2.10;;;;;;;-0.54;58.35;100130.83;105516;1258;74660;-26
2023/02/28 10:14:34;;;;;;;3.40;2.10;;;;;;;-0.47;57.33;100129.52;105178;1260;74791;-26
2023/02/28 10:17:13;;;;;;;5.40;3.10;;;;;;;-0.45;57.43;100123.52;105227;1256;73625;-26
2023/02/28 10:19:51;;;;;;;2.70;2.00;;;;;;;-0.22;57.70;100124.08;105138;1256;61207;-25
2023/02/28 10:22:34;;;;;;;7.70;3.40;;;;;;;-0.08;57.22;100122.95;105633;1256;61991;-26
2023/02/28 10:25:26;;;;;;;3.50;2.30;;;;;;;-0.20;57.55;100115.67;105535;1257;75109;-26
2023/02/28 10:27:59;;;;;;;3.60;2.40;;;;;;;0.16;56.20;100104.01;105562;1256;75862;-26
2023/02/28 10:30:27;;;;;;;;;;;;;;;0.51;56.67;100112.98;105114;1256;74340;-26
2023/02/28 10:32:56;;;;;;;2.90;2.10;;;;;;;0.34;56.17;100107.38;105468;1256;61405;-26
2023/02/28 10:35:25;;;;;;;2.80;2.30;;;;;;;0.57;56.87;100098.84;105397;1256;62170;-25
2023/02/28 10:37:56;;;;;;;3.30;2.30;;;;;;;0.56;55.86;100095.94;105473;1257;75424;-25
2023/02/28 10:40:28;;;;;;;4.30;2.80;;;;;;;-0.03;56.56;100098.11;105334;1256;76158;-26
2023/02/28 10:43:18;;;;;;;5.10;3.10;;;;;;;-0.17;57.22;100092.92;105100;1255;73917;-26
2023/02/28 10:45:53;;;;;;;4.70;2.70;;;;;;;0.15;57.55;100098.40;105108;1262;61272;-25
2023/02/28 10:48:21;;;;;;;4.20;2.60;;;;;;;-0.21;57.19;100102.56;105160;1257;61064;-25
2023/02/28 10:50:50;;;;;;;4.10;2.70;;;;;;;-0.04;57.47;100097.27;105366;1256;75153;-25
2023/02/28 10:56:07;;;;;;;4.90;3.10;;;;;;;-0.01;57.42;100087.13;102811;1290;600369;-26
2023/02/28 10:58:57;;;;;;;3.50;2.60;;;;;;;-0.09;57.19;100081.33;104853;1267;61177;-26
2023/02/28 11:01:35;;;;;;;6.20;2.90;;;;;;;-0.20;57.89;100079.66;104891;1272;61807;-26
2023/02/28 11:04:20;;;;;;;5.80;3.30;;;;;;;-0.34;57.45;100081.48;104814;1272;73780;-27
2023/02/28 11:07:00;;;;;;;4.90;2.10;;;;;;;0.15;58.28;100073.11;104872;1272;74757;-26
2023/02/28 11:09:38;;;;;;;4.00;2.30;;;;;;;0.44;57.49;100082.04;103440;1269;2071644;-26
2023/02/28 11:12:19;;;;;;;4.10;2.60;;;;;;;0.43;57.50;100083.77;105257;1266;61102;-27
2023/02/28 11:14:52;;;;;;;4.80;2.70;;;;;;;0.27;58.37;100086.52;105137;1269;61588;-26
2023/02/28 11:17:26;;;;;;;3.60;2.50;;;;;;;-0.03;57.64;100080.19;105084;1269;74056;-26
2023/02/28 11:19:56;;;;;;;4.00;2.60;;;;;;;-0.26;58.58;100075.52;105058;1266;75241;-26
2023/02/28 11:22:28;;;;;;;4.20;2.60;;;;;;;-0.28;58.10;100074.88;105265;1266;74230;-26
2023/02/28 11:25:00;;;;;;;5.80;3.00;;;;;;;0.08;58.56;100072.77;105200;1260;61108;-26
2023/02/28 11:27:33;;;;;;;2.40;1.70;;;;;;;0.43;58.29;100079.16;105109;1266;61929;-26
2023/02/28 11:30:05;;;;;;;4.30;2.60;;;;;;;0.79;57.83;100080.54;104849;1268;74958;-26
2023/02/28 11:32:34;;;;;;;4.00;2.50;;;;;;;0.96;55.95;100077.04;104997;1268;75885;-26
2023/02/28 11:35:16;;;;;;;3.60;2.60;;;;;;;0.43;56.90;100075.58;105262;1266;74464;-27
2023/02/28 11:37:45;;;;;;;3.10;2.40;;;;;;;0.59;56.68;100076.56;105106;1266;61172;-26
2023/02/28 11:40:19;;;;;;;4.00;3.00;;;;;;;0.31;56.43;100069.02;105203;1267;62156;-26
2023/02/28 11:42:51;;;;;;;3.90;3.00;;;;;;;0.46;56.48;100062.85;105152;1269;73941;-26